createdAt,value
2023-01-22T00:02:18.716Z,1.00
2023-01-22T00:04:54.184Z,1.23
2023-01-22T00:07:24.790Z,0.90
2023-01-22T00:09:56.144Z,1.50
2023-01-22T00:12:26.176Z,0.80
2023-01-22T00:14:56.829Z,0.98
2023-01-22T00:17:26.727Z,0.98
2023-01-22T00:19:55.127Z,0.80
2023-01-22T00:22:24.792Z,0.85
2023-01-22T00:24:53.450Z,1.00
2023-01-22T00:27:25.792Z,1.02
2023-01-22T00:29:56.104Z,0.82
2023-01-22T00:32:25.733Z,0.75
2023-01-22T00:34:55.505Z,0.73
2023-01-22T00:37:24.127Z,0.93
2023-01-22T00:39:52.833Z,0.80
2023-01-22T00:42:21.902Z,0.73
2023-01-22T00:44:52.005Z,0.70
2023-01-22T00:47:27.134Z,0.70
2023-01-22T00:49:56.756Z,0.60
2023-01-22T00:52:27.692Z,0.60
2023-01-22T00:54:58.390Z,0.90
2023-01-22T00:57:28.956Z,0.90
2023-01-22T00:59:59.005Z,1.17
2023-01-22T01:02:28.862Z,1.10
2023-01-22T01:04:58.698Z,1.48
2023-01-22T01:07:27.399Z,0.70
2023-01-22T01:09:56.036Z,0.80
2023-01-22T01:12:24.581Z,0.80
2023-01-22T01:14:56.957Z,0.57
2023-01-22T01:17:27.079Z,0.50
2023-01-22T01:19:55.654Z,0.70
2023-01-22T01:22:24.337Z,0.60
2023-01-22T01:24:53.869Z,0.52
2023-01-22T01:27:23.035Z,0.50
2023-01-22T01:29:53.332Z,0.70
2023-01-22T01:32:21.839Z,0.63
2023-01-22T01:34:53.743Z,0.50
2023-01-22T01:37:22.418Z,0.40
2023-01-22T01:39:52.803Z,0.60
2023-01-22T01:42:29.432Z,0.60
2023-01-22T01:45:29.486Z,0.60
2023-01-22T01:48:07.742Z,0.50
2023-01-22T01:50:39.510Z,0.50
2023-01-22T01:53:15.421Z,0.60
2023-01-22T01:55:46.096Z,0.52
2023-01-22T01:58:23.104Z,0.50
2023-01-22T02:01:03.646Z,0.60
2023-01-22T02:03:32.654Z,0.65
2023-01-22T02:06:05.172Z,0.57
2023-01-22T02:08:34.334Z,0.50
2023-01-22T02:11:03.100Z,0.60
2023-01-22T02:13:36.542Z,0.50
2023-01-22T02:16:08.102Z,0.50
2023-01-22T02:18:43.129Z,0.40
2023-01-22T02:21:44.099Z,0.80
2023-01-22T02:24:14.748Z,0.47
2023-01-22T02:26:45.802Z,0.60
2023-01-22T02:29:18.067Z,0.57
2023-01-22T02:31:52.892Z,0.50
2023-01-22T02:34:25.231Z,0.40
2023-01-22T02:36:57.677Z,0.60
2023-01-22T02:39:27.217Z,0.70
2023-01-22T02:41:55.694Z,0.50
2023-01-22T02:44:26.174Z,0.40
2023-01-22T02:46:54.929Z,0.60
2023-01-22T02:49:26.998Z,0.52
2023-01-22T02:52:06.013Z,0.40
2023-01-22T02:54:36.742Z,0.50
2023-01-22T02:57:07.567Z,0.50
2023-01-22T02:59:36.647Z,0.55
2023-01-22T03:02:07.352Z,0.50
2023-01-22T03:04:36.054Z,0.43
2023-01-22T03:07:07.142Z,0.50
2023-01-22T03:09:39.630Z,0.60
2023-01-22T03:12:09.343Z,0.40
2023-01-22T03:14:57.533Z,0.50
2023-01-22T03:17:43.702Z,0.50
2023-01-22T03:20:30.972Z,0.80
2023-01-22T03:23:00.804Z,0.63
2023-01-22T03:25:29.207Z,0.60
2023-01-22T03:28:11.658Z,0.52
2023-01-22T03:30:42.381Z,0.60
2023-01-22T03:33:11.307Z,0.50
2023-01-22T03:35:42.800Z,0.50
2023-01-22T03:38:13.365Z,0.52
2023-01-22T03:40:46.029Z,0.40
2023-01-22T03:43:14.671Z,0.40
2023-01-22T03:45:43.504Z,0.40
2023-01-22T03:48:15.011Z,0.50
2023-01-22T03:50:43.575Z,0.47
2023-01-22T03:53:13.684Z,0.60
2023-01-22T03:55:43.342Z,0.50
2023-01-22T03:58:13.986Z,0.70
2023-01-22T04:00:42.681Z,0.40
2023-01-22T04:03:12.551Z,0.40
2023-01-22T04:05:41.043Z,0.35
2023-01-22T04:08:09.348Z,0.30
2023-01-22T04:10:41.362Z,0.30
2023-01-22T04:13:10.034Z,0.40
2023-01-22T04:15:47.278Z,0.45
2023-01-22T04:18:16.109Z,0.55
2023-01-22T04:20:44.489Z,0.40
2023-01-22T04:23:13.066Z,0.47
2023-01-22T04:25:43.096Z,0.45
2023-01-22T04:28:14.929Z,0.60
2023-01-22T04:30:49.311Z,0.50
2023-01-22T04:33:19.212Z,0.43
2023-01-22T04:35:52.778Z,0.40
2023-01-22T04:38:27.499Z,0.40
2023-01-22T04:40:57.623Z,0.50
2023-01-22T04:43:27.420Z,0.50
2023-01-22T04:46:02.279Z,0.40
2023-01-22T04:48:32.947Z,0.40
2023-01-22T04:51:08.587Z,0.40
2023-01-22T04:53:38.499Z,0.40
2023-01-22T04:56:09.011Z,0.40
2023-01-22T04:58:37.706Z,0.40
2023-01-22T05:01:06.288Z,0.60
2023-01-22T05:03:35.134Z,0.47
2023-01-22T05:06:05.272Z,0.40
2023-01-22T05:08:34.262Z,0.50
2023-01-22T05:11:10.530Z,0.43
2023-01-22T05:13:44.893Z,0.45
2023-01-22T05:16:15.772Z,0.50
2023-01-22T05:18:44.386Z,0.47
2023-01-22T05:21:15.050Z,0.50
2023-01-22T05:23:46.954Z,0.52
2023-01-22T05:26:20.128Z,0.50
2023-01-22T05:28:48.804Z,0.60
2023-01-22T05:31:17.445Z,0.60
2023-01-22T05:33:46.041Z,0.60
2023-01-22T05:36:14.656Z,0.55
2023-01-22T05:38:46.972Z,0.60
2023-01-22T05:41:16.268Z,0.63
2023-01-22T05:43:46.398Z,0.60
2023-01-22T05:46:15.405Z,0.70
2023-01-22T05:48:43.962Z,0.68
2023-01-22T05:51:15.791Z,0.60
2023-01-22T05:53:47.565Z,0.90
2023-01-22T05:56:16.374Z,0.70
2023-01-22T05:58:52.603Z,0.70
2023-01-22T06:01:21.373Z,0.70
2023-01-22T06:03:50.053Z,0.60
2023-01-22T06:06:19.851Z,0.80
2023-01-22T06:08:51.623Z,0.60
2023-01-22T06:11:21.459Z,0.70
2023-01-22T06:13:51.669Z,0.60
2023-01-22T06:16:25.213Z,0.70
2023-01-22T06:18:54.800Z,0.60
2023-01-22T06:21:23.451Z,0.60
2023-01-22T06:23:51.932Z,0.70
2023-01-22T06:26:20.972Z,0.60
2023-01-22T06:28:55.370Z,0.45
2023-01-22T06:31:24.129Z,0.47
2023-01-22T06:33:54.704Z,0.60
2023-01-22T06:36:23.344Z,0.60
2023-01-22T06:38:51.894Z,0.90
2023-01-22T06:41:26.542Z,0.63
2023-01-22T06:43:57.034Z,0.70
2023-01-22T06:46:26.856Z,0.52
2023-01-22T06:48:56.725Z,0.63
2023-01-22T06:51:32.034Z,0.50
2023-01-22T06:54:01.524Z,0.70
2023-01-22T06:56:32.498Z,0.52
2023-01-22T06:59:04.935Z,0.50
2023-01-22T07:01:34.826Z,0.50
2023-01-22T07:04:12.470Z,0.68
2023-01-22T07:06:42.103Z,0.65
2023-01-22T07:09:10.703Z,0.70
2023-01-22T07:11:39.252Z,0.55
2023-01-22T07:14:10.324Z,0.50
2023-01-22T07:16:38.939Z,0.40
2023-01-22T07:19:07.904Z,0.40
2023-01-22T07:21:37.646Z,0.60
2023-01-22T07:24:07.055Z,0.60
2023-01-22T07:26:39.183Z,0.50
2023-01-22T07:29:10.134Z,0.60
2023-01-22T07:31:38.778Z,0.63
2023-01-22T07:34:18.102Z,0.50
2023-01-22T07:36:48.670Z,0.60
2023-01-22T07:39:23.590Z,0.50
2023-01-22T07:41:52.202Z,0.50
2023-01-22T07:44:23.242Z,0.47
2023-01-22T07:46:53.063Z,0.40
2023-01-22T07:49:21.733Z,0.40
2023-01-22T07:51:50.350Z,0.50
2023-01-22T07:54:20.401Z,0.50
2023-01-22T07:56:56.783Z,0.43
2023-01-22T07:59:32.112Z,0.40
2023-01-22T08:02:03.699Z,0.50
2023-01-22T08:04:32.722Z,0.50
2023-01-22T08:07:13.744Z,0.40
2023-01-22T08:09:46.289Z,0.40
2023-01-22T08:12:17.288Z,0.50
2023-01-22T08:14:47.276Z,0.40
2023-01-22T08:17:15.845Z,0.40
2023-01-22T08:19:50.063Z,0.40
2023-01-22T08:22:25.967Z,0.40
2023-01-22T08:25:01.398Z,0.50
2023-01-22T08:27:35.421Z,0.50
2023-01-22T08:30:08.022Z,0.40
2023-01-22T08:32:47.139Z,0.50
2023-01-22T08:35:16.015Z,0.50
2023-01-22T08:37:45.656Z,0.40
2023-01-22T08:40:15.445Z,0.30
2023-01-22T08:42:44.111Z,0.50
2023-01-22T08:45:15.992Z,0.65
2023-01-22T08:47:44.782Z,0.43
2023-01-22T08:50:13.393Z,0.30
2023-01-22T08:52:43.114Z,0.40
2023-01-22T08:55:13.913Z,0.30
2023-01-22T08:57:42.769Z,0.50
2023-01-22T09:00:16.964Z,0.40
2023-01-22T09:02:46.798Z,0.50
2023-01-22T09:05:15.573Z,0.47
2023-01-22T09:07:45.426Z,0.40
2023-01-22T09:10:14.351Z,0.40
2023-01-22T09:12:43.092Z,0.35
2023-01-22T09:15:15.461Z,0.40
2023-01-22T09:17:46.166Z,0.50
2023-01-22T09:20:14.841Z,0.43
2023-01-22T09:22:46.536Z,0.50
2023-01-22T09:25:15.175Z,0.50
2023-01-22T09:27:50.543Z,0.50
2023-01-22T09:30:21.092Z,0.47
2023-01-22T09:32:57.107Z,0.40
2023-01-22T09:35:28.865Z,0.40
2023-01-22T09:37:57.683Z,0.50
2023-01-22T09:40:30.199Z,0.50
2023-01-22T09:43:06.630Z,0.40
2023-01-22T09:45:40.804Z,0.63
2023-01-22T09:48:17.046Z,0.50
2023-01-22T09:50:46.868Z,0.60
2023-01-22T09:53:22.657Z,0.60
2023-01-22T09:55:57.882Z,0.68
2023-01-22T09:58:27.923Z,0.93
2023-01-22T10:01:08.743Z,0.70
2023-01-22T10:03:40.856Z,0.50
2023-01-22T10:06:13.899Z,0.40
2023-01-22T10:08:54.266Z,0.50
2023-01-22T10:11:22.906Z,0.50
2023-01-22T10:13:57.713Z,1.00
2023-01-22T10:16:30.427Z,0.68
2023-01-22T10:19:04.438Z,0.70
2023-01-22T10:21:41.036Z,0.70
2023-01-22T10:24:12.600Z,0.93
2023-01-22T10:26:44.667Z,4.03
2023-01-22T10:29:22.444Z,4.20
2023-01-22T10:31:56.353Z,4.07
2023-01-22T10:34:31.182Z,5.38
2023-01-22T10:37:03.842Z,2.00
2023-01-22T10:39:41.887Z,1.73
2023-01-22T10:42:18.826Z,1.42
2023-01-22T10:44:48.434Z,0.60
2023-01-22T10:47:22.894Z,1.00
2023-01-22T10:50:04.824Z,0.95
2023-01-22T10:52:38.262Z,1.75
2023-01-22T10:55:08.849Z,1.10
2023-01-22T10:57:40.455Z,0.60
2023-01-22T11:00:24.575Z,0.63
2023-01-22T11:02:56.919Z,0.70
2023-01-22T11:05:27.585Z,0.80
2023-01-22T11:08:00.269Z,1.10
2023-01-22T11:10:41.043Z,0.63
2023-01-22T11:13:14.932Z,0.50
2023-01-22T11:15:49.941Z,0.60
2023-01-22T11:18:32.883Z,0.70
2023-01-22T11:21:12.186Z,1.77
2023-01-22T11:23:49.035Z,2.05
2023-01-22T11:26:28.943Z,1.75
2023-01-22T11:29:09.033Z,0.95
2023-01-22T11:31:53.389Z,0.60
2023-01-22T11:34:41.221Z,0.50
2023-01-22T11:37:15.388Z,0.50
2023-01-22T11:40:13.664Z,0.50
2023-01-22T11:42:59.049Z,0.80
2023-01-22T11:45:41.493Z,1.95
2023-01-22T11:48:24.874Z,1.90
2023-01-22T11:51:05.448Z,1.67
2023-01-22T11:53:49.974Z,6.63
2023-01-22T11:56:41.680Z,1.25
2023-01-22T11:59:15.765Z,0.98
2023-01-22T12:02:20.064Z,1.02
2023-01-22T12:05:09.200Z,0.57
2023-01-22T12:08:13.451Z,0.50
2023-01-22T12:11:08.485Z,0.65
2023-01-22T12:13:55.290Z,0.40
2023-01-22T12:16:33.677Z,0.50
2023-01-22T12:19:37.803Z,4.50
2023-01-22T12:22:13.143Z,2.15
2023-01-22T12:24:48.747Z,3.47
2023-01-22T12:27:24.249Z,1.65
2023-01-22T12:29:56.955Z,1.35
2023-01-22T12:32:30.556Z,0.88
2023-01-22T12:35:06.861Z,0.60
2023-01-22T12:37:42.006Z,0.90
2023-01-22T12:40:41.828Z,0.70
2023-01-22T12:43:11.556Z,1.83
2023-01-22T12:45:45.417Z,3.03
2023-01-22T12:48:25.480Z,1.02
2023-01-22T12:50:56.415Z,1.60
2023-01-22T12:53:29.156Z,1.63
2023-01-22T12:56:07.528Z,6.57
2023-01-22T12:58:44.118Z,5.10
2023-01-22T13:01:25.462Z,1.10
2023-01-22T13:04:02.521Z,4.18
2023-01-22T13:06:38.517Z,2.60
2023-01-22T13:09:25.444Z,0.85
2023-01-22T13:11:55.483Z,0.70
2023-01-22T13:14:28.178Z,0.82
2023-01-22T13:16:59.986Z,0.80
2023-01-22T13:19:39.178Z,0.82
2023-01-22T13:22:14.950Z,0.60
2023-01-22T13:24:50.936Z,4.30
2023-01-22T13:27:30.953Z,4.53
2023-01-22T13:30:09.383Z,5.30
2023-01-22T13:32:38.128Z,4.68
2023-01-22T13:35:08.505Z,2.55
2023-01-22T13:37:38.965Z,1.77
2023-01-22T13:40:16.178Z,3.00
2023-01-22T13:42:48.097Z,3.13
2023-01-22T13:45:20.474Z,0.90
2023-01-22T13:47:49.204Z,1.60
2023-01-22T13:50:23.415Z,0.70
2023-01-22T13:52:52.456Z,0.52
2023-01-22T13:55:23.879Z,0.70
2023-01-22T13:57:55.169Z,0.90
2023-01-22T14:00:27.279Z,0.90
2023-01-22T14:02:56.403Z,0.63
2023-01-22T14:05:27.352Z,1.45
2023-01-22T14:08:07.828Z,0.68
2023-01-22T14:10:37.769Z,0.80
2023-01-22T14:13:10.894Z,0.50
2023-01-22T14:15:41.272Z,0.70
2023-01-22T14:18:11.960Z,0.70
2023-01-22T14:20:42.002Z,0.85
2023-01-22T14:23:11.101Z,0.93
2023-01-22T14:25:40.546Z,0.73
2023-01-22T14:28:11.114Z,0.70
2023-01-22T14:30:39.743Z,0.80
2023-01-22T14:33:08.643Z,0.60
2023-01-22T14:35:37.411Z,0.70
2023-01-22T14:38:05.992Z,0.68
2023-01-22T14:40:35.126Z,0.65
2023-01-22T14:43:05.081Z,0.70
2023-01-22T14:45:35.483Z,0.85
2023-01-22T14:48:04.775Z,0.65
2023-01-22T14:50:36.710Z,0.60
2023-01-22T14:53:06.480Z,0.82
2023-01-22T14:55:35.924Z,0.70
2023-01-22T14:58:07.745Z,0.90
2023-01-22T15:00:38.392Z,0.70
2023-01-22T15:03:07.734Z,0.90
2023-01-22T15:05:36.517Z,0.70
2023-01-22T15:08:05.474Z,0.95
2023-01-22T15:10:34.354Z,0.75
2023-01-22T15:13:03.445Z,0.93
2023-01-22T15:15:32.217Z,1.00
2023-01-22T15:18:03.329Z,0.98
2023-01-22T15:20:32.125Z,1.00
2023-01-22T15:23:00.983Z,1.00
2023-01-22T15:25:29.840Z,1.20
2023-01-22T15:27:58.474Z,1.00
2023-01-22T15:30:27.337Z,1.20
2023-01-22T15:32:56.584Z,0.98
2023-01-22T15:35:26.701Z,1.50
2023-01-22T15:37:55.324Z,2.42
2023-01-22T15:40:23.795Z,3.45
2023-01-22T15:42:52.488Z,2.10
2023-01-22T15:45:21.495Z,2.00
2023-01-22T15:47:50.251Z,2.10
2023-01-22T15:50:21.600Z,1.90
2023-01-22T15:52:55.189Z,1.73
2023-01-22T15:55:23.747Z,0.98
2023-01-22T15:57:52.462Z,1.80
2023-01-22T16:00:22.858Z,1.65
2023-01-22T16:02:51.693Z,1.40
2023-01-22T16:05:21.451Z,1.33
2023-01-22T16:07:52.614Z,1.25
2023-01-22T16:10:21.929Z,1.42
2023-01-22T16:12:50.535Z,1.20
2023-01-22T16:15:19.428Z,1.00
2023-01-22T16:17:48.301Z,1.40
2023-01-22T16:20:17.636Z,1.58
2023-01-22T16:22:46.965Z,1.42
2023-01-22T16:25:16.908Z,3.75
2023-01-22T16:27:46.550Z,5.13
2023-01-22T16:30:16.826Z,14.63
2023-01-22T16:32:46.396Z,6.00
2023-01-22T16:35:15.120Z,7.78
2023-01-22T16:37:45.615Z,6.72
2023-01-22T16:40:18.544Z,12.18
2023-01-22T16:43:00.353Z,9.70
2023-01-22T16:45:28.898Z,3.58
2023-01-22T16:47:58.308Z,3.22
2023-01-22T16:50:26.874Z,2.60
2023-01-22T16:52:55.470Z,2.63
2023-01-22T16:55:25.777Z,7.05
2023-01-22T16:57:54.420Z,2.30
2023-01-22T17:00:23.372Z,3.13
2023-01-22T17:02:51.999Z,3.38
2023-01-22T17:05:20.899Z,3.47
2023-01-22T17:07:49.656Z,7.35
2023-01-22T17:10:18.830Z,7.40
2023-01-22T17:12:49.409Z,3.65
2023-01-22T17:15:18.635Z,4.43
2023-01-22T17:17:47.119Z,3.63
2023-01-22T17:20:16.970Z,3.75
2023-01-22T17:22:48.617Z,4.15
2023-01-22T17:25:17.554Z,5.20
2023-01-22T17:27:46.144Z,6.70
2023-01-22T17:30:18.321Z,7.20
2023-01-22T17:32:47.850Z,2.90
2023-01-22T17:35:17.533Z,2.70
2023-01-22T17:37:47.600Z,4.28
2023-01-22T17:40:17.488Z,4.57
2023-01-22T17:42:46.258Z,5.07
2023-01-22T17:45:16.499Z,5.57
2023-01-22T17:47:45.840Z,7.10
2023-01-22T17:50:14.561Z,3.22
2023-01-22T17:52:44.257Z,2.90
2023-01-22T17:55:15.720Z,16.45
2023-01-22T17:57:45.173Z,25.70
2023-01-22T18:00:19.267Z,26.90
2023-01-22T18:02:50.336Z,33.47
2023-01-22T18:05:19.327Z,31.60
2023-01-22T18:07:47.910Z,30.13
2023-01-22T18:10:16.699Z,28.63
2023-01-22T18:12:45.884Z,28.77
2023-01-22T18:15:14.592Z,30.90
2023-01-22T18:17:44.789Z,28.65
2023-01-22T18:20:13.699Z,29.13
2023-01-22T18:22:42.319Z,28.27
2023-01-22T18:25:11.388Z,28.30
2023-01-22T18:27:39.826Z,30.10
2023-01-22T18:30:10.207Z,33.58
2023-01-22T18:32:38.837Z,34.33
2023-01-22T18:35:11.073Z,33.22
2023-01-22T18:37:40.855Z,33.67
2023-01-22T18:40:11.033Z,32.38
2023-01-22T18:42:39.662Z,29.65
2023-01-22T18:45:10.075Z,31.30
2023-01-22T18:47:38.740Z,44.13
2023-01-22T18:50:12.450Z,45.47
2023-01-22T18:52:42.195Z,39.60
2023-01-22T18:55:11.594Z,44.17
2023-01-22T18:57:43.316Z,30.50
2023-01-22T19:00:14.178Z,30.05
2023-01-22T19:02:43.512Z,26.67
2023-01-22T19:05:13.752Z,24.27
2023-01-22T19:07:42.520Z,24.17
2023-01-22T19:10:13.173Z,23.17
2023-01-22T19:12:41.816Z,24.73
2023-01-22T19:15:11.887Z,24.95
2023-01-22T19:17:40.810Z,23.42
2023-01-22T19:20:13.339Z,22.58
2023-01-22T19:22:44.044Z,22.00
2023-01-22T19:25:12.915Z,21.63
2023-01-22T19:27:41.734Z,21.77
2023-01-22T19:30:11.970Z,20.77
2023-01-22T19:32:40.693Z,22.38
2023-01-22T19:35:11.016Z,23.33
2023-01-22T19:37:40.207Z,22.13
2023-01-22T19:40:11.620Z,22.75
2023-01-22T19:42:42.092Z,22.85
2023-01-22T19:45:11.297Z,23.08
2023-01-22T19:47:39.982Z,23.77
2023-01-22T19:50:09.927Z,22.67
2023-01-22T19:52:38.837Z,22.05
2023-01-22T19:55:08.326Z,23.80
2023-01-22T19:57:38.718Z,22.33
2023-01-22T20:00:09.396Z,24.50
2023-01-22T20:02:38.300Z,23.10
2023-01-22T20:05:08.202Z,24.52
2023-01-22T20:07:36.954Z,26.67
2023-01-22T20:10:07.199Z,27.08
2023-01-22T20:12:35.803Z,28.95
2023-01-22T20:15:07.314Z,22.77
2023-01-22T20:17:36.871Z,22.35
2023-01-22T20:20:07.906Z,22.77
2023-01-22T20:22:36.668Z,22.20
2023-01-22T20:25:09.949Z,22.73
2023-01-22T20:27:38.741Z,22.38
2023-01-22T20:30:11.956Z,23.45
2023-01-22T20:32:43.749Z,22.08
2023-01-22T20:35:15.762Z,22.85
2023-01-22T20:37:44.395Z,22.48
2023-01-22T20:40:15.023Z,23.17
2023-01-22T20:42:43.990Z,23.13
2023-01-22T20:45:14.228Z,23.17
2023-01-22T20:47:43.258Z,22.88
2023-01-22T20:50:13.388Z,20.75
2023-01-22T20:52:42.119Z,20.77
2023-01-22T20:55:13.826Z,21.05
2023-01-22T20:57:42.847Z,21.48
2023-01-22T21:00:15.385Z,22.38
2023-01-22T21:02:44.227Z,21.25
2023-01-22T21:05:13.010Z,20.42
2023-01-22T21:07:41.598Z,21.10
2023-01-22T21:10:13.683Z,21.60
2023-01-22T21:12:42.884Z,20.30
2023-01-22T21:15:12.437Z,20.67
2023-01-22T21:17:42.747Z,21.10
2023-01-22T21:20:14.753Z,19.65
2023-01-22T21:22:43.725Z,19.23
2023-01-22T21:25:12.514Z,18.73
2023-01-22T21:27:41.175Z,18.75
2023-01-22T21:30:11.114Z,19.85
2023-01-22T21:32:40.783Z,18.85
2023-01-22T21:35:11.854Z,18.88
2023-01-22T21:37:40.585Z,18.15
2023-01-22T21:40:13.491Z,18.10
2023-01-22T21:43:00.151Z,17.88
2023-01-22T21:45:45.883Z,17.63
2023-01-22T21:48:14.719Z,17.70
2023-01-22T21:50:45.498Z,20.33
2023-01-22T21:53:14.287Z,20.15
2023-01-22T21:55:51.698Z,18.80
2023-01-22T21:58:20.431Z,19.63
2023-01-22T22:00:49.388Z,18.70
2023-01-22T22:03:19.976Z,19.20
2023-01-22T22:06:02.020Z,26.02
2023-01-22T22:08:31.567Z,28.10
2023-01-22T22:11:00.345Z,24.92
2023-01-22T22:13:29.065Z,24.63
2023-01-22T22:16:00.778Z,26.08
2023-01-22T22:18:29.786Z,24.05
2023-01-22T22:21:05.373Z,24.45
2023-01-22T22:23:35.570Z,26.52
2023-01-22T22:26:05.713Z,25.45
2023-01-22T22:28:38.557Z,25.40
2023-01-22T22:31:12.087Z,24.48
2023-01-22T22:33:41.115Z,23.77
2023-01-22T22:36:13.425Z,22.90
2023-01-22T22:38:42.186Z,21.92
2023-01-22T22:41:14.091Z,20.48
2023-01-22T22:43:44.934Z,22.15
2023-01-22T22:46:17.695Z,21.50
2023-01-22T22:48:47.996Z,21.77
2023-01-22T22:51:20.848Z,22.35
2023-01-22T22:53:53.032Z,21.85
2023-01-22T22:56:23.441Z,20.58
2023-01-22T22:58:52.625Z,19.75
2023-01-22T23:01:23.737Z,19.63
2023-01-22T23:03:53.744Z,19.63
2023-01-22T23:06:26.404Z,18.60
2023-01-22T23:08:57.566Z,18.27
2023-01-22T23:11:29.126Z,17.98
2023-01-22T23:14:01.625Z,17.50
2023-01-22T23:16:33.070Z,16.77
2023-01-22T23:19:04.264Z,17.33
2023-01-22T23:21:36.913Z,16.73
2023-01-22T23:24:07.338Z,16.00
2023-01-22T23:26:36.235Z,16.20
2023-01-22T23:29:06.659Z,16.00
2023-01-22T23:31:38.475Z,15.50
2023-01-22T23:34:09.595Z,16.25
2023-01-22T23:36:41.221Z,16.50
2023-01-22T23:39:10.075Z,16.42
2023-01-22T23:41:38.801Z,15.68
2023-01-22T23:44:07.381Z,16.05
2023-01-22T23:46:36.871Z,16.00
2023-01-22T23:49:05.993Z,15.65
2023-01-22T23:51:34.886Z,16.10
2023-01-22T23:54:06.254Z,15.63
2023-01-22T23:56:35.453Z,15.20
2023-01-22T23:59:04.047Z,14.23
